Time;durP1;ratioP1;P1;durP2;ratioP2;P2;SDS_P1;SDS_P2;PMS_P1;PMS_P2;Temp;Humidity;BMP_temperature;BMP_pressure;BME280_temperature;BME280_humidity;BME280_pressure;Samples;Min_cycle;Max_cycle;Signal;HPM_P1;HPM_P2
2023/05/21 00:00:39;;;;;;;16.58;11.27;;;;;;;;;;5092644;28;20123;-62
2023/05/21 00:03:12;;;;;;;12.63;10.32;;;;;;;;;;5077053;28;20040;-61
2023/05/21 00:05:40;;;;;;;15.57;10.40;;;;;;;;;;5096872;28;20075;-61
2023/05/21 00:08:08;;;;;;;14.38;9.98;;;;;;;;;;5096847;28;20036;-61
2023/05/21 00:10:35;;;;;;;12.77;10.27;;;;;;;;;;5096712;28;20119;-61
2023/05/21 00:13:02;;;;;;;12.70;10.25;;;;;;;;;;5096908;28;20111;-61
2023/05/21 00:15:30;;;;;;;14.57;10.07;;;;;;;;;;5096724;28;20040;-61
2023/05/21 00:17:57;;;;;;;15.13;9.93;;;;;;;;;;5096578;28;20040;-62
2023/05/21 00:20:25;;;;;;;13.23;9.68;;;;;;;;;;5096322;28;20047;-61
2023/05/21 00:22:53;;;;;;;13.00;9.77;;;;;;;;;;5096508;28;20036;-61
2023/05/21 00:25:20;;;;;;;13.43;9.40;;;;;;;;;;5096438;28;20036;-61
2023/05/21 00:27:48;;;;;;;13.32;9.70;;;;;;;;;;5096375;28;20044;-61
2023/05/21 00:30:16;;;;;;;13.40;9.52;;;;;;;;;;5078163;28;20063;-61
2023/05/21 00:32:43;;;;;;;13.00;9.95;;;;;;;;;;5096379;28;20486;-61
2023/05/21 00:35:11;;;;;;;16.30;10.55;;;;;;;;;;5078056;28;20144;-61
2023/05/21 00:37:39;;;;;;;15.57;10.38;;;;;;;;;;5096057;28;20052;-61
2023/05/21 00:40:08;;;;;;;15.18;10.52;;;;;;;;;;5096327;28;20448;-62
2023/05/21 00:42:38;;;;;;;12.32;10.63;;;;;;;;;;5096092;28;20041;-61
2023/05/21 00:45:07;;;;;;;15.95;10.50;;;;;;;;;;5096084;28;20058;-61
2023/05/21 00:47:35;;;;;;;15.85;11.07;;;;;;;;;;5096069;28;20040;-61
2023/05/21 00:50:03;;;;;;;16.35;10.18;;;;;;;;;;5078069;28;20062;-61
2023/05/21 00:52:31;;;;;;;14.52;10.82;;;;;;;;;;5096037;28;20090;-61
2023/05/21 00:54:58;;;;;;;18.90;10.68;;;;;;;;;;5095808;28;20036;-61
2023/05/21 00:57:26;;;;;;;15.75;11.35;;;;;;;;;;5095890;28;20044;-61
2023/05/21 00:59:54;;;;;;;16.83;11.13;;;;;;;;;;5077505;28;20512;-61
2023/05/21 01:02:22;;;;;;;17.55;10.90;;;;;;;;;;5077722;28;20040;-61
2023/05/21 01:04:51;;;;;;;16.67;10.23;;;;;;;;;;5095777;28;20032;-61
2023/05/21 01:07:19;;;;;;;14.60;10.57;;;;;;;;;;5077711;28;20036;-61
2023/05/21 01:09:46;;;;;;;12.75;10.57;;;;;;;;;;5077337;28;20331;-61
2023/05/21 01:12:14;;;;;;;15.48;11.05;;;;;;;;;;5077369;28;20047;-62
2023/05/21 01:14:42;;;;;;;16.15;11.32;;;;;;;;;;5094034;28;20044;-62
2023/05/21 01:17:10;;;;;;;14.60;11.77;;;;;;;;;;5077285;28;20040;-62
2023/05/21 01:19:37;;;;;;;13.73;11.60;;;;;;;;;;5077110;28;20132;-62
2023/05/21 01:22:06;;;;;;;17.70;12.07;;;;;;;;;;5077291;28;20039;-62
2023/05/21 01:24:35;;;;;;;16.55;11.57;;;;;;;;;;5077107;28;20072;-62
2023/05/21 01:27:05;;;;;;;23.17;12.52;;;;;;;;;;5095285;28;20039;-62
2023/05/21 01:29:33;;;;;;;22.35;12.10;;;;;;;;;;5077112;28;20078;-62
2023/05/21 01:32:03;;;;;;;17.25;11.60;;;;;;;;;;5095159;28;20032;-61
2023/05/21 01:34:38;;;;;;;17.65;12.35;;;;;;;;;;5095088;28;20056;-61
2023/05/21 01:37:15;;;;;;;18.20;11.87;;;;;;;;;;5076795;28;20048;-61
2023/05/21 01:39:44;;;;;;;15.27;12.48;;;;;;;;;;5076775;28;20040;-61
2023/05/21 01:42:12;;;;;;;20.67;11.90;;;;;;;;;;5076918;28;20036;-61
2023/05/21 01:44:40;;;;;;;17.67;12.70;;;;;;;;;;5094859;28;20490;-61
2023/05/21 01:47:09;;;;;;;19.45;12.82;;;;;;;;;;5076803;28;20047;-62
2023/05/21 01:49:38;;;;;;;17.55;12.75;;;;;;;;;;5076733;28;20067;-61
2023/05/21 01:52:05;;;;;;;17.17;12.85;;;;;;;;;;5076637;28;20397;-61
2023/05/21 01:54:33;;;;;;;19.30;12.50;;;;;;;;;;5094855;28;20032;-61
2023/05/21 01:57:00;;;;;;;18.75;12.30;;;;;;;;;;5094668;28;20036;-61
2023/05/21 01:59:28;;;;;;;19.25;12.68;;;;;;;;;;5076439;28;20044;-61
2023/05/21 02:01:56;;;;;;;21.25;13.25;;;;;;;;;;5076427;28;20040;-61
2023/05/21 02:04:23;;;;;;;20.48;12.95;;;;;;;;;;5076333;28;20071;-61
2023/05/21 02:06:53;;;;;;;16.25;11.93;;;;;;;;;;5094555;28;20066;-61
2023/05/21 02:09:21;;;;;;;17.38;12.63;;;;;;;;;;5076354;28;20444;-61
2023/05/21 02:11:48;;;;;;;18.38;13.05;;;;;;;;;;5076330;28;20058;-61
2023/05/21 02:14:16;;;;;;;17.23;13.40;;;;;;;;;;5076133;28;20126;-61
2023/05/21 02:16:43;;;;;;;17.13;13.05;;;;;;;;;;5076070;28;20058;-61
2023/05/21 02:19:11;;;;;;;19.00;14.05;;;;;;;;;;5076008;28;20044;-62
2023/05/21 02:21:39;;;;;;;16.85;13.20;;;;;;;;;;5075984;28;20559;-62
2023/05/21 02:24:06;;;;;;;18.60;13.25;;;;;;;;;;5094285;28;20036;-62
2023/05/21 02:26:34;;;;;;;18.50;12.77;;;;;;;;;;5093683;28;20494;-62
2023/05/21 02:29:03;;;;;;;19.70;13.25;;;;;;;;;;5059426;28;20050;-63
2023/05/21 02:31:30;;;;;;;19.88;13.00;;;;;;;;;;5059652;28;20543;-61
2023/05/21 02:33:58;;;;;;;18.30;12.90;;;;;;;;;;5075672;28;20038;-61
2023/05/21 02:36:27;;;;;;;22.58;13.75;;;;;;;;;;5059169;28;20142;-61
2023/05/21 02:38:56;;;;;;;19.15;13.00;;;;;;;;;;5075691;28;20048;-61
2023/05/21 02:41:25;;;;;;;17.88;13.15;;;;;;;;;;5075720;28;20084;-61
2023/05/21 02:43:53;;;;;;;21.35;13.55;;;;;;;;;;5075521;28;20044;-61
2023/05/21 02:46:20;;;;;;;20.40;13.57;;;;;;;;;;5075574;28;20130;-61
2023/05/21 02:48:48;;;;;;;21.77;13.23;;;;;;;;;;5075524;28;20040;-61
2023/05/21 02:51:16;;;;;;;20.38;12.77;;;;;;;;;;5075826;28;20077;-61
2023/05/21 02:53:43;;;;;;;20.95;12.90;;;;;;;;;;5075501;28;20044;-60
2023/05/21 02:56:11;;;;;;;20.92;13.98;;;;;;;;;;5075409;28;20036;-61
2023/05/21 02:58:38;;;;;;;24.60;13.50;;;;;;;;;;5075289;28;20048;-61
2023/05/21 03:01:06;;;;;;;20.73;13.05;;;;;;;;;;5075196;28;20040;-61
2023/05/21 03:03:34;;;;;;;22.45;14.07;;;;;;;;;;5075255;28;20048;-61
2023/05/21 03:06:02;;;;;;;18.08;12.93;;;;;;;;;;5075226;28;20047;-61
2023/05/21 03:08:30;;;;;;;25.08;14.05;;;;;;;;;;5075216;28;20040;-61
2023/05/21 03:10:58;;;;;;;19.15;13.18;;;;;;;;;;5093244;28;20502;-61
2023/05/21 03:13:25;;;;;;;23.60;14.20;;;;;;;;;;5075151;28;20517;-61
2023/05/21 03:15:55;;;;;;;20.27;12.93;;;;;;;;;;5075093;28;20039;-61
2023/05/21 03:18:23;;;;;;;24.02;14.93;;;;;;;;;;5075082;28;20040;-61
2023/05/21 03:20:50;;;;;;;26.40;14.30;;;;;;;;;;5074838;28;20505;-61
2023/05/21 03:23:18;;;;;;;27.13;14.32;;;;;;;;;;5093127;28;20032;-61
2023/05/21 03:25:46;;;;;;;25.80;15.43;;;;;;;;;;5058506;28;20068;-62
2023/05/21 03:28:14;;;;;;;26.48;14.88;;;;;;;;;;5093059;28;20458;-61
2023/05/21 03:30:45;;;;;;;23.25;14.65;;;;;;;;;;5074868;28;20489;-61
2023/05/21 03:33:48;;;;;;;27.15;15.25;;;;;;;;;;5067975;28;20067;-61
2023/05/21 03:36:21;;;;;;;28.25;14.73;;;;;;;;;;5074349;28;20490;-61
2023/05/21 03:38:49;;;;;;;28.00;15.45;;;;;;;;;;5074667;28;20043;-61
2023/05/21 03:41:16;;;;;;;22.85;14.23;;;;;;;;;;5074704;28;20047;-61
2023/05/21 03:43:49;;;;;;;25.40;14.82;;;;;;;;;;5074744;28;20071;-62
2023/05/21 03:46:18;;;;;;;30.13;16.23;;;;;;;;;;5074788;28;20051;-61
2023/05/21 03:49:05;;;;;;;24.27;15.55;;;;;;;;;;5074780;28;20047;-61
2023/05/21 03:51:37;;;;;;;31.08;15.90;;;;;;;;;;5074611;28;20389;-61
2023/05/21 03:54:05;;;;;;;25.38;15.40;;;;;;;;;;5074585;28;20472;-61
2023/05/21 03:56:35;;;;;;;22.20;14.18;;;;;;;;;;5074647;28;20131;-61
2023/05/21 03:59:02;;;;;;;23.98;15.15;;;;;;;;;;5074550;28;20218;-61
2023/05/21 04:01:32;;;;;;;22.27;13.50;;;;;;;;;;5074511;28;20051;-61
2023/05/21 04:04:01;;;;;;;25.42;14.02;;;;;;;;;;5074625;28;20048;-61
2023/05/21 04:06:29;;;;;;;19.65;13.40;;;;;;;;;;5074488;28;20110;-61
2023/05/21 04:08:56;;;;;;;22.58;13.85;;;;;;;;;;5074522;28;20379;-61
2023/05/21 04:11:24;;;;;;;22.50;13.90;;;;;;;;;;5074464;28;20048;-61
2023/05/21 04:13:51;;;;;;;19.88;13.20;;;;;;;;;;5074517;28;20558;-62
2023/05/21 04:16:19;;;;;;;23.05;13.38;;;;;;;;;;5074404;28;20036;-62
2023/05/21 04:18:46;;;;;;;23.27;12.98;;;;;;;;;;5074404;28;20518;-62
2023/05/21 04:21:15;;;;;;;18.50;11.93;;;;;;;;;;5074288;28;20109;-62
2023/05/21 04:23:43;;;;;;;17.80;10.75;;;;;;;;;;5092300;28;20123;-62
2023/05/21 04:26:34;;;;;;;19.15;11.27;;;;;;;;;;5091253;28;20136;-62
2023/05/21 04:29:02;;;;;;;15.45;10.95;;;;;;;;;;5057864;28;20044;-62
2023/05/21 04:31:33;;;;;;;16.23;11.52;;;;;;;;;;5074223;28;20128;-61
2023/05/21 04:34:02;;;;;;;16.67;11.98;;;;;;;;;;5074199;28;20051;-61
2023/05/21 04:36:32;;;;;;;19.58;12.32;;;;;;;;;;5074017;28;20048;-61
2023/05/21 04:39:00;;;;;;;14.80;11.52;;;;;;;;;;5092128;28;20397;-61
2023/05/21 04:41:28;;;;;;;14.68;11.18;;;;;;;;;;5092047;28;20044;-61
2023/05/21 04:43:55;;;;;;;16.70;11.55;;;;;;;;;;5073996;28;20068;-61
2023/05/21 04:46:26;;;;;;;15.60;12.13;;;;;;;;;;5073850;28;20569;-61
2023/05/21 04:48:54;;;;;;;14.75;10.82;;;;;;;;;;5094588;28;20524;-62
2023/05/21 04:51:23;;;;;;;21.63;11.55;;;;;;;;;;5077667;28;20108;-61
2023/05/21 04:53:52;;;;;;;14.93;10.73;;;;;;;;;;5077785;28;20036;-62
2023/05/21 04:56:26;;;;;;;14.85;10.23;;;;;;;;;;5077611;28;20097;-61
2023/05/21 04:58:54;;;;;;;12.85;10.40;;;;;;;;;;5077553;28;20050;-61
2023/05/21 05:01:22;;;;;;;15.75;10.73;;;;;;;;;;5095606;28;20040;-61
2023/05/21 05:03:50;;;;;;;14.02;9.98;;;;;;;;;;5077521;28;20067;-62
2023/05/21 05:06:17;;;;;;;14.70;10.40;;;;;;;;;;5077586;28;20051;-62
2023/05/21 05:08:45;;;;;;;14.00;9.82;;;;;;;;;;5077570;28;20036;-62
2023/05/21 05:11:14;;;;;;;14.55;9.73;;;;;;;;;;5077369;28;20050;-62
2023/05/21 05:13:42;;;;;;;13.95;8.90;;;;;;;;;;5077474;28;20138;-63
2023/05/21 05:16:10;;;;;;;13.80;10.32;;;;;;;;;;5077279;28;20036;-63
2023/05/21 05:18:37;;;;;;;15.93;9.25;;;;;;;;;;5076991;28;20048;-62
2023/05/21 05:21:05;;;;;;;12.35;8.73;;;;;;;;;;5076988;28;20062;-61
2023/05/21 05:23:32;;;;;;;12.75;7.82;;;;;;;;;;5095459;28;20032;-62
2023/05/21 05:26:00;;;;;;;11.23;9.10;;;;;;;;;;5077262;28;20494;-61
2023/05/21 05:28:28;;;;;;;12.25;8.93;;;;;;;;;;5070311;28;20064;-62
2023/05/21 05:30:55;;;;;;;14.63;9.35;;;;;;;;;;5066020;28;20574;-63
2023/05/21 05:33:24;;;;;;;14.32;9.05;;;;;;;;;;5056960;28;20128;-61
2023/05/21 05:35:53;;;;;;;10.90;8.27;;;;;;;;;;5057094;28;20071;-61
2023/05/21 05:38:20;;;;;;;11.35;9.02;;;;;;;;;;5053405;28;20056;-62
2023/05/21 05:40:48;;;;;;;10.30;8.85;;;;;;;;;;5053351;28;20041;-62
2023/05/21 05:43:16;;;;;;;13.93;7.97;;;;;;;;;;5053563;28;20505;-62
2023/05/21 05:45:43;;;;;;;10.85;7.72;;;;;;;;;;5037211;28;20041;-62
2023/05/21 05:48:13;;;;;;;11.38;8.20;;;;;;;;;;5053425;28;20048;-61
2023/05/21 05:50:41;;;;;;;10.43;7.78;;;;;;;;;;5053325;28;20045;-61
2023/05/21 05:53:11;;;;;;;11.68;8.25;;;;;;;;;;5053296;28;20041;-63
2023/05/21 05:55:40;;;;;;;10.93;8.45;;;;;;;;;;5053181;28;20065;-62
2023/05/21 05:58:07;;;;;;;11.25;8.25;;;;;;;;;;5053153;28;20426;-62
2023/05/21 06:00:47;;;;;;;10.20;8.63;;;;;;;;;;5051950;28;20053;-62
2023/05/21 06:03:15;;;;;;;12.60;8.13;;;;;;;;;;5052971;28;20095;-62
2023/05/21 06:05:43;;;;;;;12.15;8.32;;;;;;;;;;5052721;28;20076;-63
2023/05/21 06:08:10;;;;;;;9.95;8.70;;;;;;;;;;5055403;28;20045;-62
2023/05/21 06:10:38;;;;;;;9.98;8.38;;;;;;;;;;5053003;28;20487;-68
2023/05/21 06:13:05;;;;;;;10.02;8.13;;;;;;;;;;5052907;28;20048;-67
2023/05/21 06:15:33;;;;;;;12.15;10.02;;;;;;;;;;5052922;28;20049;-68
2023/05/21 06:18:01;;;;;;;10.20;8.43;;;;;;;;;;5052775;28;20045;-66
2023/05/21 06:20:29;;;;;;;11.20;8.95;;;;;;;;;;5052570;28;20033;-66
2023/05/21 06:22:57;;;;;;;9.38;7.88;;;;;;;;;;5053799;28;20098;-67
2023/05/21 06:25:25;;;;;;;9.27;7.88;;;;;;;;;;5053319;28;20495;-67
2023/05/21 06:27:53;;;;;;;11.68;7.68;;;;;;;;;;5052425;28;20049;-67
2023/05/21 06:30:25;;;;;;;11.70;8.35;;;;;;;;;;5052467;28;20051;-66
2023/05/21 06:32:53;;;;;;;8.75;6.70;;;;;;;;;;5052675;28;20045;-66
2023/05/21 06:35:20;;;;;;;9.45;7.10;;;;;;;;;;5052545;28;20569;-66
2023/05/21 06:37:48;;;;;;;9.18;7.35;;;;;;;;;;5068595;28;20052;-66
2023/05/21 06:40:16;;;;;;;9.10;6.93;;;;;;;;;;5055873;28;20045;-66
2023/05/21 06:42:45;;;;;;;10.07;6.80;;;;;;;;;;5055811;28;20436;-66
2023/05/21 06:45:31;;;;;;;13.27;10.05;;;;;;;;;;5073533;28;20050;-65
2023/05/21 06:48:05;;;;;;;13.07;6.45;;;;;;;;;;5055542;28;20064;-66
2023/05/21 06:50:32;;;;;;;13.25;8.60;;;;;;;;;;5055980;28;20044;-66
2023/05/21 06:53:00;;;;;;;16.23;13.48;;;;;;;;;;5060961;28;20032;-66
2023/05/21 06:55:28;;;;;;;8.68;5.82;;;;;;;;;;5075233;28;20071;-65
2023/05/21 06:58:13;;;;;;;7.60;5.97;;;;;;;;;;5060652;28;20037;-66
2023/05/21 07:00:40;;;;;;;11.77;7.28;;;;;;;;;;5060353;28;20383;-65
2023/05/21 07:03:08;;;;;;;9.45;5.40;;;;;;;;;;5067293;28;20040;-65
2023/05/21 07:05:36;;;;;;;10.57;5.97;;;;;;;;;;5066858;28;20039;-65
2023/05/21 07:08:05;;;;;;;7.90;5.35;;;;;;;;;;5057775;28;20090;-65
2023/05/21 07:10:34;;;;;;;7.88;5.30;;;;;;;;;;5055330;28;20040;-65
2023/05/21 07:13:01;;;;;;;8.38;5.10;;;;;;;;;;5073027;28;20040;-65
2023/05/21 07:15:29;;;;;;;7.95;4.95;;;;;;;;;;5087480;28;20486;-65
2023/05/21 07:17:57;;;;;;;7.03;4.78;;;;;;;;;;5061714;28;20047;-65
2023/05/21 07:20:25;;;;;;;7.43;5.10;;;;;;;;;;5064782;28;20123;-66
2023/05/21 07:22:55;;;;;;;7.05;5.35;;;;;;;;;;5062850;28;20045;-64
2023/05/21 07:25:23;;;;;;;8.27;5.68;;;;;;;;;;5057186;28;20064;-66
2023/05/21 07:27:50;;;;;;;8.80;5.40;;;;;;;;;;5070198;28;20067;-66
2023/05/21 07:30:18;;;;;;;7.13;4.80;;;;;;;;;;5082309;28;20047;-65
2023/05/21 07:32:46;;;;;;;9.43;6.32;;;;;;;;;;5064804;28;20036;-65
2023/05/21 07:35:14;;;;;;;5.80;4.63;;;;;;;;;;5057337;28;20118;-65
2023/05/21 07:37:41;;;;;;;9.55;5.47;;;;;;;;;;5085000;28;20541;-65
2023/05/21 07:40:09;;;;;;;7.18;5.53;;;;;;;;;;5034652;28;20041;-65
2023/05/21 07:42:37;;;;;;;5.63;5.13;;;;;;;;;;5052352;28;20098;-65
2023/05/21 07:45:06;;;;;;;9.95;5.10;;;;;;;;;;5081794;28;20497;-65
2023/05/21 07:47:39;;;;;;;7.28;5.68;;;;;;;;;;5074545;28;20499;-65
2023/05/21 07:50:07;;;;;;;8.07;5.28;;;;;;;;;;5074411;28;20048;-65
2023/05/21 07:52:35;;;;;;;11.75;5.82;;;;;;;;;;5072819;28;20043;-66
2023/05/21 07:55:03;;;;;;;9.32;5.20;;;;;;;;;;5073529;28;20485;-65
2023/05/21 07:57:34;;;;;;;7.72;5.05;;;;;;;;;;5074676;28;20062;-65
2023/05/21 08:00:13;;;;;;;8.48;5.70;;;;;;;;;;5073747;28;20050;-65
2023/05/21 08:02:51;;;;;;;6.15;4.68;;;;;;;;;;5073248;28;20071;-65
2023/05/21 08:05:20;;;;;;;9.25;5.78;;;;;;;;;;5072915;28;20040;-65
2023/05/21 08:07:48;;;;;;;6.55;5.60;;;;;;;;;;5072555;28;20037;-65
2023/05/21 08:10:15;;;;;;;9.85;6.65;;;;;;;;;;5073073;28;20106;-65
2023/05/21 08:12:47;;;;;;;5.63;4.80;;;;;;;;;;5072494;28;20135;-65
2023/05/21 08:15:15;;;;;;;7.13;4.60;;;;;;;;;;5074267;28;20044;-66
2023/05/21 08:17:45;;;;;;;6.55;5.10;;;;;;;;;;5074588;28;20482;-65
2023/05/21 08:20:14;;;;;;;8.20;4.63;;;;;;;;;;5074491;28;20051;-65
2023/05/21 08:22:44;;;;;;;6.88;4.88;;;;;;;;;;5075099;28;20089;-65
2023/05/21 08:25:11;;;;;;;8.10;4.97;;;;;;;;;;5078422;28;20485;-65
2023/05/21 08:27:39;;;;;;;7.95;4.53;;;;;;;;;;5078356;28;20135;-65
2023/05/21 08:30:10;;;;;;;10.10;5.15;;;;;;;;;;5078463;28;20152;-65
2023/05/21 08:32:38;;;;;;;12.05;7.60;;;;;;;;;;5078291;28;20456;-65
2023/05/21 08:35:06;;;;;;;8.85;5.00;;;;;;;;;;5078405;28;20047;-65
2023/05/21 08:38:11;;;;;;;10.48;4.65;;;;;;;;;;5083983;28;20040;-65
2023/05/21 08:40:58;;;;;;;6.45;4.45;;;;;;;;;;5078104;28;20041;-65
2023/05/21 08:43:27;;;;;;;9.30;5.55;;;;;;;;;;5078168;28;20040;-65
2023/05/21 08:45:59;;;;;;;10.05;6.47;;;;;;;;;;5078497;28;20040;-65
2023/05/21 08:48:31;;;;;;;10.88;6.63;;;;;;;;;;5078203;28;20458;-65
2023/05/21 08:51:00;;;;;;;8.50;5.03;;;;;;;;;;5096509;28;20051;-65
2023/05/21 08:53:33;;;;;;;8.02;5.32;;;;;;;;;;5077766;28;20135;-66
2023/05/21 08:56:03;;;;;;;9.75;5.65;;;;;;;;;;5077941;28;20059;-65
2023/05/21 08:58:48;;;;;;;7.22;5.18;;;;;;;;;;5077939;28;20040;-65
2023/05/21 09:01:19;;;;;;;8.40;6.03;;;;;;;;;;5077786;28;20044;-65
2023/05/21 09:03:57;;;;;;;10.50;6.63;;;;;;;;;;5077611;28;20040;-66
2023/05/21 09:06:40;;;;;;;6.75;4.95;;;;;;;;;;5077645;28;20047;-66
2023/05/21 09:09:17;;;;;;;11.77;5.10;;;;;;;;;;5077778;28;20040;-66
2023/05/21 09:11:48;;;;;;;10.57;5.53;;;;;;;;;;5077687;28;20076;-65
2023/05/21 09:14:16;;;;;;;10.05;5.38;;;;;;;;;;5077422;28;20048;-65
2023/05/21 09:16:57;;;;;;;9.95;6.68;;;;;;;;;;5077748;28;20123;-66
2023/05/21 09:19:27;;;;;;;11.18;5.50;;;;;;;;;;5077668;28;20051;-66
2023/05/21 09:22:01;;;;;;;8.60;4.95;;;;;;;;;;5077756;28;20497;-64
2023/05/21 09:24:32;;;;;;;7.35;4.88;;;;;;;;;;5077384;28;20044;-65
2023/05/21 09:27:03;;;;;;;;;;;;;;;;;;5077872;28;20159;-66
2023/05/21 09:29:33;;;;;;;10.82;5.28;;;;;;;;;;5077250;28;19966;-65
2023/05/21 09:32:06;;;;;;;8.27;4.85;;;;;;;;;;5095393;28;20087;-66
2023/05/21 09:34:37;;;;;;;7.82;5.28;;;;;;;;;;5076559;28;20055;-66
2023/05/21 09:37:06;;;;;;;8.02;4.40;;;;;;;;;;5077170;28;20494;-66
2023/05/21 09:39:43;;;;;;;6.75;5.15;;;;;;;;;;5076953;28;20040;-66
2023/05/21 09:42:10;;;;;;;7.53;5.20;;;;;;;;;;5095419;28;20052;-66
2023/05/21 09:44:38;;;;;;;6.95;4.78;;;;;;;;;;5072174;28;20510;-67
2023/05/21 09:47:11;;;;;;;9.25;5.05;;;;;;;;;;5055386;28;20047;-66
2023/05/21 09:49:38;;;;;;;9.77;5.25;;;;;;;;;;5055902;28;20478;-70
2023/05/21 09:52:06;;;;;;;8.48;4.55;;;;;;;;;;5074338;28;20049;-65
2023/05/21 09:54:34;;;;;;;14.40;5.72;;;;;;;;;;5062995;28;20032;-67
2023/05/21 09:57:01;;;;;;;9.82;6.65;;;;;;;;;;5081924;28;20048;-67
2023/05/21 09:59:38;;;;;;;7.78;5.90;;;;;;;;;;5076304;28;20061;-66
2023/05/21 10:02:22;;;;;;;11.30;5.20;;;;;;;;;;5068909;28;20106;-66
2023/05/21 10:04:53;;;;;;;8.00;5.38;;;;;;;;;;5089679;28;20044;-65
2023/05/21 10:07:25;;;;;;;8.93;5.22;;;;;;;;;;5055968;28;20140;-65
2023/05/21 10:09:56;;;;;;;8.05;6.00;;;;;;;;;;5077785;28;20529;-65
2023/05/21 10:12:25;;;;;;;11.88;6.70;;;;;;;;;;5094554;28;20075;-65
2023/05/21 10:15:00;;;;;;;8.60;6.20;;;;;;;;;;5091148;28;20481;-64
2023/05/21 10:17:29;;;;;;;8.80;6.05;;;;;;;;;;5056970;28;20090;-64
2023/05/21 10:19:57;;;;;;;9.45;6.47;;;;;;;;;;5073851;28;20039;-65
2023/05/21 10:22:25;;;;;;;11.45;5.32;;;;;;;;;;5081572;28;20066;-65
2023/05/21 10:25:47;;;;;;;12.65;9.57;;;;;;;;;;5056697;28;20044;-65
2023/05/21 10:28:31;;;;;;;8.68;5.90;;;;;;;;;;5060508;28;20127;-66
2023/05/21 10:30:58;;;;;;;11.90;7.22;;;;;;;;;;5082851;28;20071;-65
2023/05/21 10:33:26;;;;;;;6.75;5.22;;;;;;;;;;5073491;28;20036;-65
2023/05/21 10:35:54;;;;;;;8.45;5.80;;;;;;;;;;5055534;28;20047;-65
2023/05/21 10:38:21;;;;;;;12.57;9.88;;;;;;;;;;5073089;28;20048;-66
2023/05/21 10:40:49;;;;;;;10.57;5.22;;;;;;;;;;5073126;28;20444;-66
2023/05/21 10:43:35;;;;;;;10.18;4.80;;;;;;;;;;5072822;28;20036;-64
2023/05/21 10:46:03;;;;;;;7.35;4.45;;;;;;;;;;5054791;28;20486;-63
2023/05/21 10:48:58;;;;;;;10.88;7.93;;;;;;;;;;5073333;28;20043;-64
2023/05/21 10:51:54;;;;;;;9.07;4.95;;;;;;;;;;5056656;28;20497;-63
2023/05/21 10:54:37;;;;;;;6.30;4.80;;;;;;;;;;5064378;28;20054;-64
2023/05/21 10:57:24;;;;;;;12.38;5.32;;;;;;;;;;5072499;28;20079;-63
2023/05/21 10:59:51;;;;;;;9.00;5.35;;;;;;;;;;5072538;28;20086;-63
2023/05/21 11:02:19;;;;;;;14.27;5.60;;;;;;;;;;5078471;28;20036;-63
2023/05/21 11:04:47;;;;;;;11.32;5.88;;;;;;;;;;5093049;28;20036;-64
2023/05/21 11:07:23;;;;;;;10.95;5.63;;;;;;;;;;5074865;28;20070;-64
2023/05/21 11:09:50;;;;;;;7.13;4.90;;;;;;;;;;5092985;28;20464;-65
2023/05/21 11:12:21;;;;;;;9.20;4.97;;;;;;;;;;5092324;28;20028;-63
2023/05/21 11:14:56;;;;;;;10.10;4.63;;;;;;;;;;5092746;28;20048;-64
2023/05/21 11:17:23;;;;;;;;;;;;;;;;;;5074939;28;20036;-64
2023/05/21 11:19:51;;;;;;;10.05;4.40;;;;;;;;;;5092613;28;19919;-63
2023/05/21 11:22:27;;;;;;;9.07;4.75;;;;;;;;;;5092464;28;20508;-64
2023/05/21 11:25:01;;;;;;;7.78;5.63;;;;;;;;;;5092676;28;20123;-64
2023/05/21 11:27:41;;;;;;;16.88;12.32;;;;;;;;;;5074419;28;20131;-64
2023/05/21 11:30:10;;;;;;;8.32;4.82;;;;;;;;;;5092438;28;20048;-64
2023/05/21 11:32:47;;;;;;;8.85;4.20;;;;;;;;;;5074444;28;20040;-66
2023/05/21 11:35:15;;;;;;;7.00;4.85;;;;;;;;;;5092594;28;20039;-64
2023/05/21 11:37:49;;;;;;;10.35;4.85;;;;;;;;;;5092581;28;20410;-64
2023/05/21 11:40:29;;;;;;;10.68;4.55;;;;;;;;;;5093339;28;20461;-64
2023/05/21 11:43:15;;;;;;;10.30;4.32;;;;;;;;;;5072916;28;20050;-63
2023/05/21 11:45:51;;;;;;;9.90;6.28;;;;;;;;;;5092749;28;20062;-64
2023/05/21 11:48:26;;;;;;;7.93;4.63;;;;;;;;;;5092668;28;20485;-63
2023/05/21 11:50:56;;;;;;;6.53;4.72;;;;;;;;;;5092162;28;20070;-64
2023/05/21 11:53:24;;;;;;;5.35;3.97;;;;;;;;;;5066961;28;20494;-64
2023/05/21 11:55:56;;;;;;;6.03;4.20;;;;;;;;;;5071781;28;20119;-64
2023/05/21 12:01:45;;;;;;;7.60;4.38;;;;;;;;;;5078433;28;20040;-64
2023/05/21 12:04:15;;;;;;;10.35;4.40;;;;;;;;;;5091155;28;20074;-64
2023/05/21 12:10:23;;;;;;;10.82;4.50;;;;;;;;;;5068971;28;20056;-63
2023/05/21 12:12:51;;;;;;;9.82;4.68;;;;;;;;;;5088368;28;20059;-63
2023/05/21 12:15:23;;;;;;;9.45;4.85;;;;;;;;;;5075892;28;20049;-63
2023/05/21 12:17:54;;;;;;;6.68;3.72;;;;;;;;;;5052644;28;20040;-63
2023/05/21 12:20:22;;;;;;;8.07;4.53;;;;;;;;;;5052648;28;20048;-65
2023/05/21 12:22:50;;;;;;;7.18;4.60;;;;;;;;;;5071589;28;20041;-64
2023/05/21 12:25:18;;;;;;;10.10;6.30;;;;;;;;;;5071457;28;20132;-65
2023/05/21 12:27:47;;;;;;;8.57;5.82;;;;;;;;;;5071275;28;20549;-64
2023/05/21 12:30:15;;;;;;;8.88;5.32;;;;;;;;;;5071565;28;20032;-66
2023/05/21 12:32:43;;;;;;;11.20;5.60;;;;;;;;;;5070757;28;20525;-65
2023/05/21 12:35:20;;;;;;;7.18;5.22;;;;;;;;;;5071292;28;20048;-66
2023/05/21 12:37:49;;;;;;;10.25;4.75;;;;;;;;;;5071325;28;20481;-66
2023/05/21 12:40:17;;;;;;;8.35;4.25;;;;;;;;;;5054659;28;20043;-66
2023/05/21 12:42:45;;;;;;;11.88;4.57;;;;;;;;;;5072350;28;20407;-66
2023/05/21 12:45:17;;;;;;;12.13;5.35;;;;;;;;;;5071724;28;20128;-65
2023/05/21 12:47:49;;;;;;;10.45;7.63;;;;;;;;;;5072087;28;20090;-65
2023/05/21 12:50:19;;;;;;;7.90;4.75;;;;;;;;;;5072318;28;20115;-65
2023/05/21 12:52:47;;;;;;;6.00;4.50;;;;;;;;;;5054521;28;20040;-66
2023/05/21 12:55:16;;;;;;;8.25;4.03;;;;;;;;;;5066997;28;20483;-65
2023/05/21 12:57:44;;;;;;;7.10;4.90;;;;;;;;;;5072003;28;20033;-66
2023/05/21 13:00:13;;;;;;;8.25;4.47;;;;;;;;;;5054949;28;20043;-65
2023/05/21 13:03:20;;;;;;;;;;;;;;;;;;;;;
2023/05/21 13:06:12;;;;;;;7.47;4.20;;;;;;;;;;5082968;28;20481;-65
2023/05/21 13:08:40;;;;;;;6.07;4.10;;;;;;;;;;5074189;28;20051;-66
2023/05/21 13:11:07;;;;;;;8.57;4.07;;;;;;;;;;5096010;28;20406;-66
2023/05/21 13:13:35;;;;;;;7.03;4.35;;;;;;;;;;5096016;28;20046;-65
2023/05/21 13:16:04;;;;;;;7.32;4.03;;;;;;;;;;5096371;28;20044;-67
2023/05/21 13:18:32;;;;;;;6.18;4.10;;;;;;;;;;5096028;28;20089;-66
2023/05/21 13:20:59;;;;;;;8.35;3.92;;;;;;;;;;5096946;28;20037;-65
2023/05/21 13:23:27;;;;;;;9.35;4.38;;;;;;;;;;5095995;28;20040;-66
2023/05/21 13:25:54;;;;;;;8.77;4.18;;;;;;;;;;5097873;28;20107;-65
2023/05/21 13:28:23;;;;;;;7.82;4.30;;;;;;;;;;5095639;28;20076;-65
2023/05/21 13:30:53;;;;;;;8.20;4.32;;;;;;;;;;5079095;28;20043;-66
2023/05/21 13:33:21;;;;;;;24.65;4.35;;;;;;;;;;5095901;28;20052;-65
2023/05/21 13:35:50;;;;;;;12.95;3.25;;;;;;;;;;5095954;28;20048;-66
2023/05/21 13:38:18;;;;;;;11.27;4.00;;;;;;;;;;5086527;28;20489;-66
2023/05/21 13:40:47;;;;;;;18.20;6.32;;;;;;;;;;5075778;28;20115;-64
2023/05/21 13:43:14;;;;;;;11.60;4.47;;;;;;;;;;5075091;28;20056;-67
2023/05/21 13:45:43;;;;;;;22.20;5.32;;;;;;;;;;5075390;28;20486;-66
2023/05/21 13:48:11;;;;;;;13.68;4.47;;;;;;;;;;5075226;28;20045;-64
2023/05/21 13:50:39;;;;;;;7.82;3.10;;;;;;;;;;5075407;28;20393;-66
2023/05/21 13:53:07;;;;;;;4.97;2.83;;;;;;;;;;5081840;28;20413;-66
2023/05/21 13:55:35;;;;;;;9.95;3.47;;;;;;;;;;5076080;28;20466;-66
2023/05/21 13:58:02;;;;;;;6.15;3.17;;;;;;;;;;5095051;28;20048;-66
2023/05/21 14:00:30;;;;;;;4.78;3.25;;;;;;;;;;5092272;28;20038;-67
2023/05/21 14:02:58;;;;;;;5.40;3.50;;;;;;;;;;5075803;28;20047;-67
2023/05/21 14:05:25;;;;;;;12.82;3.83;;;;;;;;;;5057780;28;20072;-67
2023/05/21 14:07:53;;;;;;;4.60;3.47;;;;;;;;;;5057028;28;20037;-66
2023/05/21 14:10:20;;;;;;;4.70;3.63;;;;;;;;;;5089782;28;20070;-66
2023/05/21 14:12:48;;;;;;;4.72;3.15;;;;;;;;;;5079559;28;20388;-65
2023/05/21 14:16:02;;;;;;;6.38;3.75;;;;;;;;;;5074354;28;20666;-66
2023/05/21 14:18:55;;;;;;;5.72;3.40;;;;;;;;;;5070264;28;20048;-65
2023/05/21 14:21:23;;;;;;;5.30;3.63;;;;;;;;;;5074279;28;20130;-66
2023/05/21 14:23:51;;;;;;;5.80;3.50;;;;;;;;;;5078722;28;20127;-66
2023/05/21 14:26:18;;;;;;;5.38;3.78;;;;;;;;;;5074292;28;20044;-65
2023/05/21 14:28:46;;;;;;;5.13;4.05;;;;;;;;;;5074303;28;20041;-66
2023/05/21 14:31:14;;;;;;;4.78;3.67;;;;;;;;;;5073761;28;20059;-65
2023/05/21 14:34:00;;;;;;;4.90;3.28;;;;;;;;;;5073704;28;20040;-66
2023/05/21 14:36:28;;;;;;;6.85;3.70;;;;;;;;;;5073573;28;20052;-66
2023/05/21 14:38:56;;;;;;;6.22;3.33;;;;;;;;;;5055868;28;20080;-65
2023/05/21 14:41:25;;;;;;;7.18;4.60;;;;;;;;;;5073783;28;20040;-65
2023/05/21 14:43:53;;;;;;;6.82;5.15;;;;;;;;;;5073683;28;20059;-64
2023/05/21 14:46:22;;;;;;;9.88;5.40;;;;;;;;;;5056257;28;20048;-64
2023/05/21 14:48:49;;;;;;;12.15;7.78;;;;;;;;;;5074233;28;20482;-64
2023/05/21 14:51:18;;;;;;;9.48;5.93;;;;;;;;;;5056248;28;20452;-65
2023/05/21 14:53:45;;;;;;;9.52;5.30;;;;;;;;;;5074264;28;20041;-64
2023/05/21 14:56:12;;;;;;;9.55;5.60;;;;;;;;;;5074172;28;20122;-65
2023/05/21 14:58:40;;;;;;;7.97;4.18;;;;;;;;;;5056340;28;20433;-67